createdAt,value
2017-06-06T00:00:05.488Z,1007.13
2017-06-06T00:01:14.415Z,1007.11
2017-06-06T00:02:23.928Z,1007.07
2017-06-06T00:03:33.473Z,1007.09
2017-06-06T00:04:42.697Z,1007.06
2017-06-06T00:05:51.588Z,1007.01
2017-06-06T00:07:00.482Z,1006.99
2017-06-06T00:08:09.521Z,1007.01
2017-06-06T00:09:19.061Z,1007.01
2017-06-06T00:10:27.949Z,1007
2017-06-06T00:11:36.844Z,1007.01
2017-06-06T00:12:46.058Z,1006.95
2017-06-06T00:13:55.097Z,1006.96
2017-06-06T00:15:03.993Z,1006.89
2017-06-06T00:16:12.881Z,1006.86
2017-06-06T00:17:22.095Z,1006.89
2017-06-06T00:18:30.998Z,1006.88
2017-06-06T00:19:40.191Z,1006.82
2017-06-06T00:20:49.080Z,1006.81
2017-06-06T00:21:57.974Z,1006.78
2017-06-06T00:23:06.868Z,1006.8
2017-06-06T00:24:15.790Z,1006.76
2017-06-06T00:25:25.007Z,1006.75
2017-06-06T00:26:33.900Z,1006.72
2017-06-06T00:27:43.117Z,1006.71
2017-06-06T00:28:52.007Z,1006.69
2017-06-06T00:30:01.221Z,1006.73
2017-06-06T00:31:10.488Z,1006.67
2017-06-06T00:32:19.703Z,1006.65
2017-06-06T00:33:28.596Z,1006.64
2017-06-06T00:34:38.145Z,1006.59
2017-06-06T00:35:47.052Z,1006.59
2017-06-06T00:36:56.095Z,1006.55
2017-06-06T00:38:04.991Z,1006.52
2017-06-06T00:39:14.208Z,1006.57
2017-06-06T00:40:23.423Z,1006.55
2017-06-06T00:41:32.313Z,1006.5
2017-06-06T00:42:41.383Z,1006.47
2017-06-06T00:43:50.606Z,1006.44
2017-06-06T00:44:59.823Z,1006.44
2017-06-06T00:46:08.712Z,1006.5
2017-06-06T00:47:17.943Z,1006.46
2017-06-06T00:48:26.830Z,1006.43
2017-06-06T00:49:35.772Z,1006.41
2017-06-06T00:50:44.673Z,1006.37
2017-06-06T00:51:53.893Z,1006.34
2017-06-06T00:53:02.785Z,1006.37
2017-06-06T00:54:11.787Z,1006.31
2017-06-06T00:55:20.689Z,1006.33
2017-06-06T00:56:29.579Z,1006.23
2017-06-06T00:57:38.793Z,1006.24
2017-06-06T00:58:47.682Z,1006.2
2017-06-06T00:59:56.676Z,1006.25
2017-06-06T01:01:05.897Z,1006.21
2017-06-06T01:02:14.794Z,1006.22
2017-06-06T01:03:23.685Z,1006.21
2017-06-06T01:04:32.572Z,1006.2
2017-06-06T01:05:41.617Z,1006.14
2017-06-06T01:06:51.159Z,1006.16
2017-06-06T01:08:00.046Z,1006.11
2017-06-06T01:09:08.937Z,1006.17
2017-06-06T01:10:18.171Z,1006.16
2017-06-06T01:11:27.168Z,1006.12
2017-06-06T01:12:36.059Z,1006.09
2017-06-06T01:13:45.275Z,1006.05
2017-06-06T01:14:54.167Z,1006.04
2017-06-06T01:16:03.060Z,1006.04
2017-06-06T01:17:12.352Z,1006.02
2017-06-06T01:18:21.243Z,1005.95
2017-06-06T01:19:30.135Z,1005.94
2017-06-06T01:20:39.027Z,1005.89
2017-06-06T01:21:47.915Z,1005.84
2017-06-06T01:22:56.803Z,1005.89
2017-06-06T01:24:06.345Z,1005.89
2017-06-06T01:25:15.558Z,1005.84
2017-06-06T01:26:24.451Z,1005.82
2017-06-06T01:27:33.344Z,1005.79
2017-06-06T01:28:42.231Z,1005.75
2017-06-06T01:29:51.128Z,1005.74
2017-06-06T01:31:00.020Z,1005.72
2017-06-06T01:32:09.559Z,1005.7
2017-06-06T01:33:18.452Z,1005.7
2017-06-06T01:34:27.351Z,1005.68
2017-06-06T01:35:36.585Z,1005.64
2017-06-06T01:36:45.798Z,1005.65
2017-06-06T01:37:54.687Z,1005.69
2017-06-06T01:39:03.900Z,1005.63
2017-06-06T01:40:13.218Z,1005.66
2017-06-06T01:41:22.105Z,1005.62
2017-06-06T01:42:30.997Z,1005.58
2017-06-06T01:43:39.886Z,1005.63
2017-06-06T01:44:48.781Z,1005.64
2017-06-06T01:45:58.648Z,1005.64
2017-06-06T01:47:07.859Z,1005.6
2017-06-06T01:48:17.076Z,1005.6
2017-06-06T01:49:25.972Z,1005.58
2017-06-06T01:50:35.189Z,1005.56
2017-06-06T01:51:44.698Z,1005.52
2017-06-06T01:52:53.913Z,1005.51
2017-06-06T01:54:02.809Z,1005.49
2017-06-06T01:55:12.022Z,1005.49
2017-06-06T01:56:20.912Z,1005.49
2017-06-06T01:57:30.128Z,1005.42
2017-06-06T01:58:39.015Z,1005.47
2017-06-06T01:59:48.232Z,1005.42
2017-06-06T02:00:57.119Z,1005.41
2017-06-06T02:02:06.006Z,1005.4
2017-06-06T02:03:15.268Z,1005.41
2017-06-06T02:04:24.481Z,1005.4
2017-06-06T02:05:33.370Z,1005.35
2017-06-06T02:06:42.585Z,1005.37
2017-06-06T02:07:51.472Z,1005.3
2017-06-06T02:09:00.569Z,1005.33
2017-06-06T02:10:09.782Z,1005.29
2017-06-06T02:11:18.674Z,1005.25
2017-06-06T02:12:27.565Z,1005.28
2017-06-06T02:13:36.455Z,1005.26
2017-06-06T02:14:45.820Z,1005.23
2017-06-06T02:15:55.031Z,1005.24
2017-06-06T02:17:03.920Z,1005.24
2017-06-06T02:18:12.818Z,1005.17
2017-06-06T02:19:21.709Z,1005.21
2017-06-06T02:20:30.597Z,1005.17
2017-06-06T02:21:39.816Z,1005.19
2017-06-06T02:22:48.707Z,1005.12
2017-06-06T02:23:57.920Z,1005.06
2017-06-06T02:25:06.805Z,1005.12
2017-06-06T02:26:15.854Z,1005.09
2017-06-06T02:27:24.750Z,1005.09
2017-06-06T02:28:33.640Z,1005.06
2017-06-06T02:29:42.528Z,1005.04
2017-06-06T02:30:51.422Z,1005.05
2017-06-06T02:32:00.467Z,1004.97
2017-06-06T02:33:09.687Z,1004.97
2017-06-06T02:34:18.902Z,1004.96
2017-06-06T02:35:28.117Z,1004.92
2017-06-06T02:36:37.014Z,1004.87
2017-06-06T02:37:45.909Z,1004.91
2017-06-06T02:38:55.130Z,1004.86
2017-06-06T02:40:04.670Z,1004.81
2017-06-06T02:41:13.558Z,1004.85
2017-06-06T02:42:22.786Z,1004.88
2017-06-06T02:43:31.678Z,1004.84
2017-06-06T02:44:40.570Z,1004.86
2017-06-06T02:45:49.785Z,1004.78
2017-06-06T02:46:59.331Z,1004.83
2017-06-06T02:48:08.222Z,1004.72
2017-06-06T02:49:17.409Z,1004.72
2017-06-06T02:50:26.294Z,1004.68
2017-06-06T02:51:35.182Z,1004.72
2017-06-06T02:52:44.073Z,1004.72
2017-06-06T02:53:53.288Z,1004.69
2017-06-06T02:55:02.330Z,1004.66
2017-06-06T02:56:11.219Z,1004.63
2017-06-06T02:57:20.110Z,1004.62
2017-06-06T02:58:29.324Z,1004.58
2017-06-06T02:59:38.211Z,1004.56
2017-06-06T03:00:47.250Z,1004.54
2017-06-06T03:01:56.137Z,1004.53
2017-06-06T03:03:05.027Z,1004.48
2017-06-06T03:04:14.243Z,1004.49
2017-06-06T03:05:23.130Z,1004.47
2017-06-06T03:06:32.326Z,1004.5
2017-06-06T03:07:41.218Z,1004.46
2017-06-06T03:08:50.103Z,1004.44
2017-06-06T03:09:59.359Z,1004.42
2017-06-06T03:11:08.255Z,1004.35
2017-06-06T03:12:17.470Z,1004.37
2017-06-06T03:13:27.012Z,1004.3
2017-06-06T03:14:36.223Z,1004.31
2017-06-06T03:15:45.112Z,1004.25
2017-06-06T03:16:54.000Z,1004.28
2017-06-06T03:18:02.887Z,1004.23
2017-06-06T03:19:11.804Z,1004.23
2017-06-06T03:20:21.024Z,1004.24
2017-06-06T03:21:29.912Z,1004.22
2017-06-06T03:22:38.801Z,1004.24
2017-06-06T03:23:47.992Z,1004.22
2017-06-06T03:24:57.207Z,1004.19
2017-06-06T03:26:06.097Z,1004.23
2017-06-06T03:27:14.994Z,1004.2
2017-06-06T03:28:23.882Z,1004.21
2017-06-06T03:29:33.021Z,1004.2
2017-06-06T03:30:41.918Z,1004.16
2017-06-06T03:31:50.824Z,1004.17
2017-06-06T03:32:59.712Z,1004.07
2017-06-06T03:34:08.930Z,1004.07
2017-06-06T03:35:18.144Z,1004.06
2017-06-06T03:36:27.035Z,1004.02
2017-06-06T03:37:35.925Z,1003.99
2017-06-06T03:38:44.814Z,1004.01
2017-06-06T03:39:53.705Z,1003.98
2017-06-06T03:41:02.744Z,1004
2017-06-06T03:42:11.952Z,1004.01
2017-06-06T03:43:20.842Z,1004
2017-06-06T03:44:29.732Z,1003.98
2017-06-06T03:45:38.622Z,1003.95
2017-06-06T03:46:47.661Z,1003.93
2017-06-06T03:47:56.553Z,1003.93
2017-06-06T03:49:05.442Z,1003.94
2017-06-06T03:50:14.337Z,1003.92
2017-06-06T03:51:23.228Z,1003.92
2017-06-06T03:52:32.492Z,1003.92
2017-06-06T03:53:41.386Z,1003.92
2017-06-06T03:54:50.277Z,1003.82
2017-06-06T03:55:59.166Z,1003.87
2017-06-06T03:57:08.060Z,1003.88
2017-06-06T03:58:17.047Z,1003.87
2017-06-06T03:59:25.937Z,1003.83
2017-06-06T04:00:34.822Z,1003.81
2017-06-06T04:01:44.033Z,1003.82
2017-06-06T04:02:52.925Z,1003.82
2017-06-06T04:04:02.290Z,1003.83
2017-06-06T04:05:11.185Z,1003.76
2017-06-06T04:06:20.399Z,1003.72
2017-06-06T04:07:29.287Z,1003.72
2017-06-06T04:08:38.502Z,1003.73
2017-06-06T04:09:48.137Z,1003.7
2017-06-06T04:10:57.030Z,1003.67
2017-06-06T04:12:06.245Z,1003.67
2017-06-06T04:13:15.782Z,1003.65
2017-06-06T04:14:24.670Z,1003.64
2017-06-06T04:15:33.863Z,1003.65
2017-06-06T04:16:42.752Z,1003.62
2017-06-06T04:17:51.968Z,1003.67
2017-06-06T04:19:00.858Z,1003.67
2017-06-06T04:20:09.749Z,1003.64
2017-06-06T04:21:18.787Z,1003.64
2017-06-06T04:22:27.676Z,1003.59
2017-06-06T04:23:36.892Z,1003.61
2017-06-06T04:24:45.780Z,1003.59
2017-06-06T04:25:54.996Z,1003.58
2017-06-06T04:27:03.884Z,1003.55
2017-06-06T04:28:12.775Z,1003.55
2017-06-06T04:29:21.672Z,1003.53
2017-06-06T04:30:30.570Z,1003.51
2017-06-06T04:31:39.782Z,1003.5
2017-06-06T04:32:48.673Z,1003.48
2017-06-06T04:33:57.565Z,1003.48
2017-06-06T04:35:06.786Z,1003.49
2017-06-06T04:36:16.322Z,1003.47
2017-06-06T04:37:25.217Z,1003.39
2017-06-06T04:38:34.139Z,1003.46
2017-06-06T04:39:43.029Z,1003.39
2017-06-06T04:40:51.928Z,1003.36
2017-06-06T04:42:00.817Z,1003.34
2017-06-06T04:43:10.038Z,1003.35
2017-06-06T04:44:19.081Z,1003.33
2017-06-06T04:45:27.972Z,1003.32
2017-06-06T04:46:36.864Z,1003.3
2017-06-06T04:47:45.755Z,1003.27
2017-06-06T04:48:54.646Z,1003.3
2017-06-06T04:50:03.541Z,1003.26
2017-06-06T04:51:12.758Z,1003.2
2017-06-06T04:52:21.973Z,1003.21
2017-06-06T04:53:30.866Z,1003.21
2017-06-06T04:54:40.084Z,1003.23
2017-06-06T04:55:49.078Z,1003.15
2017-06-06T04:56:57.970Z,1003.17
2017-06-06T04:58:07.186Z,1003.16
2017-06-06T04:59:16.077Z,1003.07
2017-06-06T05:00:24.971Z,1003.07
2017-06-06T05:01:34.016Z,1003.06
2017-06-06T05:02:43.237Z,1003.03
2017-06-06T05:03:52.132Z,1003.02
2017-06-06T05:05:01.026Z,1003.01
2017-06-06T05:06:09.919Z,1002.96
2017-06-06T05:07:19.213Z,1002.98
2017-06-06T05:08:28.432Z,1002.93
2017-06-06T05:09:37.325Z,1002.89
2017-06-06T05:10:46.221Z,1002.87
2017-06-06T05:11:55.437Z,1002.85
2017-06-06T05:13:04.480Z,1002.83
2017-06-06T05:14:13.377Z,1002.8
2017-06-06T05:15:22.271Z,1002.87
2017-06-06T05:16:31.166Z,1002.8
2017-06-06T05:17:40.058Z,1002.81
2017-06-06T05:18:49.005Z,1002.79
2017-06-06T05:19:57.903Z,1002.81
2017-06-06T05:21:07.121Z,1002.78
2017-06-06T05:22:16.016Z,1002.72
2017-06-06T05:23:25.241Z,1002.75
2017-06-06T05:24:34.985Z,1002.77
2017-06-06T05:25:43.877Z,1002.73
2017-06-06T05:26:53.095Z,1002.79
2017-06-06T05:28:01.999Z,1002.79
2017-06-06T05:29:10.892Z,1002.79
2017-06-06T05:30:19.833Z,1002.75
2017-06-06T05:31:29.378Z,1002.7
2017-06-06T05:32:38.278Z,1002.74
2017-06-06T05:33:47.173Z,1002.76
2017-06-06T05:34:56.391Z,1002.75
2017-06-06T05:36:05.336Z,1002.78
2017-06-06T05:37:14.566Z,1002.76
2017-06-06T05:38:23.564Z,1002.8
2017-06-06T05:39:32.723Z,1002.74
2017-06-06T05:40:41.770Z,1002.67
2017-06-06T05:41:51.737Z,1002.65
2017-06-06T05:43:00.694Z,1002.67
2017-06-06T05:44:09.585Z,1002.64
2017-06-06T05:45:18.479Z,1002.61
2017-06-06T05:46:27.369Z,1002.64
2017-06-06T05:47:36.510Z,1002.61
2017-06-06T05:48:45.407Z,1002.6
2017-06-06T05:49:54.625Z,1002.54
2017-06-06T05:51:03.842Z,1002.6
2017-06-06T05:52:12.735Z,1002.55
2017-06-06T05:53:21.674Z,1002.53
2017-06-06T05:54:30.566Z,1002.52
2017-06-06T05:55:39.464Z,1002.52
2017-06-06T05:56:48.691Z,1002.49
2017-06-06T05:57:57.587Z,1002.5
2017-06-06T05:59:06.802Z,1002.52
2017-06-06T06:00:16.019Z,1002.57
2017-06-06T06:01:24.912Z,1002.51
2017-06-06T06:02:34.172Z,1002.52
2017-06-06T06:03:43.392Z,1002.49
2017-06-06T06:04:52.292Z,1002.48
2017-06-06T06:06:01.187Z,1002.5
2017-06-06T06:07:10.084Z,1002.49
2017-06-06T06:08:18.992Z,1002.46
2017-06-06T06:09:28.205Z,1002.45
2017-06-06T06:10:37.425Z,1002.43
2017-06-06T06:11:46.964Z,1002.47
2017-06-06T06:12:55.858Z,1002.44
2017-06-06T06:14:04.747Z,1002.39
2017-06-06T06:15:13.970Z,1002.41
2017-06-06T06:16:22.865Z,1002.42
2017-06-06T06:17:32.080Z,1002.4
2017-06-06T06:18:40.980Z,1002.43
2017-06-06T06:19:49.871Z,1002.42
2017-06-06T06:20:58.764Z,1002.39
2017-06-06T06:22:07.657Z,1002.44
2017-06-06T06:23:17.860Z,1002.4
2017-06-06T06:24:26.903Z,1002.4
2017-06-06T06:25:35.795Z,1002.34
2017-06-06T06:26:45.020Z,1002.33
2017-06-06T06:27:53.918Z,1002.26
2017-06-06T06:29:02.814Z,1002.23
2017-06-06T06:30:11.961Z,1002.21
2017-06-06T06:31:20.853Z,1002.18
2017-06-06T06:32:30.070Z,1002.08
2017-06-06T06:33:38.985Z,1002.11
2017-06-06T06:34:48.524Z,1002.15
2017-06-06T06:35:57.519Z,1002.1
2017-06-06T06:37:06.417Z,1002.11
2017-06-06T06:38:15.309Z,1002.1
2017-06-06T06:39:24.204Z,1002.12
2017-06-06T06:40:33.100Z,1002.08
2017-06-06T06:41:42.245Z,1002.06
2017-06-06T06:42:51.467Z,1002.08
2017-06-06T06:44:00.391Z,1002.1
2017-06-06T06:45:09.357Z,1002.11
2017-06-06T06:46:18.250Z,1002
2017-06-06T06:47:27.293Z,1001.93
2017-06-06T06:48:36.189Z,1001.94
2017-06-06T06:49:45.090Z,1001.89
2017-06-06T06:50:53.985Z,1001.88
2017-06-06T06:52:03.214Z,1001.87
2017-06-06T06:53:12.310Z,1001.86
2017-06-06T06:54:21.203Z,1001.82
2017-06-06T06:55:30.106Z,1001.83
2017-06-06T06:56:39.329Z,1001.76
2017-06-06T06:57:48.548Z,1001.8
2017-06-06T06:58:58.020Z,1001.82
2017-06-06T07:00:07.240Z,1001.83
2017-06-06T07:01:16.137Z,1001.83
2017-06-06T07:02:25.359Z,1001.82
2017-06-06T07:03:34.258Z,1001.83
2017-06-06T07:04:43.626Z,1001.75
2017-06-06T07:05:52.525Z,1001.76
2017-06-06T07:07:01.751Z,1001.77
2017-06-06T07:08:10.658Z,1001.76
2017-06-06T07:09:19.588Z,1001.69
2017-06-06T07:10:28.508Z,1001.69
2017-06-06T07:11:37.438Z,1001.68
2017-06-06T07:12:46.358Z,1001.68
2017-06-06T07:13:55.263Z,1001.65
2017-06-06T07:15:04.480Z,1001.71
2017-06-06T07:16:13.867Z,1001.68
2017-06-06T07:17:22.761Z,1001.65
2017-06-06T07:18:31.981Z,1001.69
2017-06-06T07:19:41.205Z,1001.66
2017-06-06T07:20:50.108Z,1001.68
2017-06-06T07:21:59.480Z,1001.65
2017-06-06T07:23:08.720Z,1001.63
2017-06-06T07:24:17.963Z,1001.61
2017-06-06T07:25:26.869Z,1001.57
2017-06-06T07:26:35.987Z,1001.54
2017-06-06T07:27:45.199Z,1001.51
2017-06-06T07:28:54.103Z,1001.52
2017-06-06T07:30:02.998Z,1001.51
2017-06-06T07:31:11.928Z,1001.48
2017-06-06T07:32:20.832Z,1001.5
2017-06-06T07:33:30.070Z,1001.45
2017-06-06T07:34:38.977Z,1001.42
2017-06-06T07:35:48.548Z,1001.4
2017-06-06T07:36:57.482Z,1001.4
2017-06-06T07:38:06.452Z,1001.41
2017-06-06T07:39:15.347Z,1001.38
2017-06-06T07:40:24.265Z,1001.39
2017-06-06T07:41:33.308Z,1001.38
2017-06-06T07:42:42.902Z,1001.36
2017-06-06T07:43:51.797Z,1001.32
2017-06-06T07:45:00.792Z,1001.39
2017-06-06T07:46:09.708Z,1001.37
2017-06-06T07:47:18.602Z,1001.26
2017-06-06T07:48:27.951Z,1001.28
2017-06-06T07:49:37.976Z,1001.35
2017-06-06T07:50:47.212Z,1001.29
2017-06-06T07:51:56.113Z,1001.28
2017-06-06T07:53:05.008Z,1001.22
2017-06-06T07:54:13.945Z,1001.21
2017-06-06T07:55:22.877Z,1001.22
2017-06-06T07:56:32.436Z,1001.18
2017-06-06T07:57:41.733Z,1001.2
2017-06-06T07:58:50.958Z,1001.19
2017-06-06T08:00:00.015Z,1001.13
2017-06-06T08:01:09.237Z,1001.11
2017-06-06T08:02:18.852Z,1001.12
2017-06-06T08:03:27.908Z,1001.08
2017-06-06T08:04:36.841Z,1001.05
2017-06-06T08:05:45.757Z,1001.03
2017-06-06T08:06:54.650Z,1001.03
2017-06-06T08:08:03.598Z,1001.02
2017-06-06T08:09:12.495Z,1001.02
2017-06-06T08:10:21.715Z,1000.98
2017-06-06T08:11:30.609Z,1001.02
2017-06-06T08:12:39.825Z,1000.96
2017-06-06T08:13:49.023Z,1000.86
2017-06-06T08:14:57.916Z,1000.86
2017-06-06T08:16:06.812Z,1000.89
2017-06-06T08:17:16.033Z,1000.87
2017-06-06T08:18:24.926Z,1000.82
2017-06-06T08:19:34.357Z,1000.83
2017-06-06T08:20:43.583Z,1000.86
2017-06-06T08:21:52.814Z,1000.79
2017-06-06T08:23:01.715Z,1000.73
2017-06-06T08:24:10.618Z,1000.68
2017-06-06T08:25:19.572Z,1000.69
2017-06-06T08:26:28.841Z,1000.74
2017-06-06T08:27:37.757Z,1000.7
2017-06-06T08:28:46.657Z,1000.71
2017-06-06T08:29:55.551Z,1000.69
2017-06-06T08:31:04.600Z,1000.6
2017-06-06T08:32:13.837Z,1000.65
2017-06-06T08:33:22.735Z,1000.61
2017-06-06T08:34:31.962Z,1000.55
2017-06-06T08:35:40.900Z,1000.52
2017-06-06T08:36:50.506Z,1000.57
2017-06-06T08:37:59.404Z,1000.51
2017-06-06T08:39:08.299Z,1000.56
2017-06-06T08:40:17.196Z,1000.45
2017-06-06T08:41:26.744Z,1000.44
2017-06-06T08:42:35.750Z,1000.45
2017-06-06T08:43:44.982Z,1000.45
2017-06-06T08:44:53.885Z,1000.41
2017-06-06T08:46:03.105Z,1000.36
2017-06-06T08:47:12.064Z,1000.37
2017-06-06T08:48:21.014Z,1000.32
2017-06-06T08:49:30.911Z,1000.34
2017-06-06T08:50:40.459Z,1000.33
2017-06-06T08:51:49.367Z,1000.24
2017-06-06T08:52:58.264Z,1000.15
2017-06-06T08:54:07.459Z,1000.26
2017-06-06T08:55:17.013Z,1000.21
2017-06-06T08:56:25.938Z,1000.19
2017-06-06T08:57:35.201Z,1000.17
2017-06-06T08:58:44.098Z,1000.12
2017-06-06T08:59:53.151Z,1000.07
2017-06-06T09:01:02.061Z,1000.06
2017-06-06T09:02:11.265Z,1000.1
2017-06-06T09:03:20.162Z,1000.13
2017-06-06T09:04:29.068Z,1000.04
2017-06-06T09:05:38.167Z,1000.02
2017-06-06T09:06:47.062Z,1000.03
2017-06-06T09:07:55.962Z,999.99
2017-06-06T09:09:04.863Z,1000
2017-06-06T09:10:14.085Z,999.98
2017-06-06T09:11:23.361Z,999.99
2017-06-06T09:12:32.268Z,999.99
2017-06-06T09:13:41.164Z,999.95
2017-06-06T09:14:50.067Z,999.95
2017-06-06T09:15:58.973Z,999.97
2017-06-06T09:17:07.875Z,1000.01
2017-06-06T09:18:17.128Z,999.95
2017-06-06T09:19:26.725Z,999.91
2017-06-06T09:20:35.643Z,999.88
2017-06-06T09:21:44.576Z,999.93
2017-06-06T09:22:53.685Z,999.9
2017-06-06T09:24:03.234Z,999.79
2017-06-06T09:25:12.459Z,999.83
2017-06-06T09:26:21.683Z,999.76
2017-06-06T09:27:30.589Z,999.73
2017-06-06T09:28:39.860Z,999.77
2017-06-06T09:29:48.795Z,999.78
2017-06-06T09:30:57.697Z,999.68
2017-06-06T09:32:06.598Z,999.78
2017-06-06T09:33:15.534Z,999.69
2017-06-06T09:34:24.493Z,999.61
2017-06-06T09:35:33.397Z,999.61
2017-06-06T09:36:42.984Z,999.65
2017-06-06T09:37:51.907Z,999.66
2017-06-06T09:39:00.801Z,999.65
2017-06-06T09:40:10.128Z,999.61
2017-06-06T09:41:19.352Z,999.65
2017-06-06T09:42:28.253Z,999.66
2017-06-06T09:43:37.492Z,999.74
2017-06-06T09:44:46.415Z,999.68
2017-06-06T09:45:55.367Z,999.71
2017-06-06T09:47:04.265Z,999.68
2017-06-06T09:48:13.181Z,999.74
2017-06-06T09:49:22.409Z,999.74
2017-06-06T09:50:31.306Z,999.7
2017-06-06T09:51:40.585Z,999.76
2017-06-06T09:52:49.488Z,999.67
2017-06-06T09:53:58.712Z,999.72
2017-06-06T09:55:07.608Z,999.71
2017-06-06T09:56:16.507Z,999.71
2017-06-06T09:57:25.461Z,999.74
2017-06-06T09:58:34.694Z,999.7
2017-06-06T09:59:43.593Z,999.64
2017-06-06T10:00:52.488Z,999.62
2017-06-06T10:02:01.386Z,999.62
2017-06-06T10:03:10.769Z,999.67
2017-06-06T10:04:19.667Z,999.64
2017-06-06T10:05:28.892Z,999.59
2017-06-06T10:06:37.793Z,999.59
2017-06-06T10:07:47.015Z,999.46
2017-06-06T10:08:56.664Z,999.6
2017-06-06T10:10:05.595Z,999.56
2017-06-06T10:11:14.500Z,999.48
2017-06-06T10:12:23.401Z,999.51
2017-06-06T10:13:32.960Z,999.44
2017-06-06T10:14:41.944Z,999.49
2017-06-06T10:15:51.166Z,999.46
2017-06-06T10:17:00.076Z,999.46
2017-06-06T10:18:09.303Z,999.43
2017-06-06T10:19:18.531Z,999.44
2017-06-06T10:20:27.861Z,999.41
2017-06-06T10:21:36.758Z,999.47
2017-06-06T10:22:45.657Z,999.46
2017-06-06T10:23:54.557Z,999.45
2017-06-06T10:25:03.456Z,999.36
2017-06-06T10:26:13.000Z,999.37
2017-06-06T10:27:21.918Z,999.39
2017-06-06T10:28:30.818Z,999.4
2017-06-06T10:29:39.715Z,999.37
2017-06-06T10:30:48.938Z,999.32
2017-06-06T10:31:57.939Z,999.33
2017-06-06T10:33:06.840Z,999.27
2017-06-06T10:34:16.062Z,999.33
2017-06-06T10:35:24.960Z,999.35
2017-06-06T10:36:33.858Z,999.39
2017-06-06T10:37:42.755Z,999.26
2017-06-06T10:38:51.652Z,999.48
2017-06-06T10:40:00.547Z,999.39
2017-06-06T10:41:09.486Z,999.22
2017-06-06T10:42:18.717Z,999.41
2017-06-06T10:43:27.808Z,999.37
2017-06-06T10:44:37.030Z,999.37
2017-06-06T10:45:45.930Z,999.27
2017-06-06T10:46:55.151Z,999.33
2017-06-06T10:48:04.700Z,999.29
2017-06-06T10:49:13.747Z,999.22
2017-06-06T10:50:22.646Z,999.26
2017-06-06T10:51:31.552Z,999.28
2017-06-06T10:52:40.462Z,999.29
2017-06-06T10:53:49.363Z,999.28
2017-06-06T10:54:58.263Z,999.33
2017-06-06T10:56:07.163Z,999.34
2017-06-06T10:57:16.064Z,999.31
2017-06-06T10:58:24.965Z,999.33
2017-06-06T10:59:33.866Z,999.31
2017-06-06T11:00:43.565Z,999.3
2017-06-06T11:01:52.791Z,999.28
2017-06-06T11:03:01.687Z,999.28
2017-06-06T11:04:10.588Z,999.24
2017-06-06T11:05:19.815Z,999.19
2017-06-06T11:06:29.049Z,999.17
2017-06-06T11:07:37.949Z,999.21
2017-06-06T11:08:46.849Z,999.21
2017-06-06T11:09:55.747Z,999.19
2017-06-06T11:11:04.659Z,999.12
2017-06-06T11:12:13.711Z,999.21
2017-06-06T11:13:23.268Z,999.24
2017-06-06T11:14:32.166Z,999.17
2017-06-06T11:15:41.065Z,999.19
2017-06-06T11:16:50.284Z,999.15
2017-06-06T11:17:59.661Z,998.96
2017-06-06T11:19:08.560Z,999.11
2017-06-06T11:20:17.459Z,999.1
2017-06-06T11:21:26.365Z,999.11
2017-06-06T11:22:35.599Z,999.11
2017-06-06T11:23:44.834Z,999.05
2017-06-06T11:24:54.725Z,999.13
2017-06-06T11:26:03.626Z,999
2017-06-06T11:27:12.528Z,999.05
2017-06-06T11:28:21.430Z,999.06
2017-06-06T11:29:30.708Z,999
2017-06-06T11:30:40.582Z,998.98
2017-06-06T11:31:49.485Z,999
2017-06-06T11:32:58.398Z,998.91
2017-06-06T11:34:07.296Z,998.95
2017-06-06T11:35:16.345Z,998.87
2017-06-06T11:36:25.568Z,999
2017-06-06T11:37:34.464Z,999
2017-06-06T11:38:43.360Z,999.03
2017-06-06T11:39:52.261Z,999.07
2017-06-06T11:41:01.535Z,999.03
2017-06-06T11:42:10.434Z,999.05
2017-06-06T11:43:19.339Z,999.09
2017-06-06T11:44:28.240Z,999.13
2017-06-06T11:45:37.467Z,999.1
2017-06-06T11:46:46.521Z,999.13
2017-06-06T11:47:55.741Z,999.18
2017-06-06T11:49:04.638Z,999.24
2017-06-06T11:50:13.547Z,999.22
2017-06-06T11:51:22.774Z,999.2
2017-06-06T11:52:31.998Z,999.23
2017-06-06T11:53:40.897Z,999.27
2017-06-06T11:54:50.140Z,999.18
2017-06-06T11:55:59.366Z,999.25
2017-06-06T11:57:08.263Z,999.18
2017-06-06T11:58:17.263Z,999.25
2017-06-06T11:59:26.167Z,999.13
2017-06-06T12:00:35.066Z,999.22
2017-06-06T12:01:44.016Z,999.26
2017-06-06T12:02:52.914Z,999.18
2017-06-06T12:04:02.242Z,999.16
2017-06-06T12:05:11.155Z,999.12
2017-06-06T12:06:20.385Z,999.16
2017-06-06T12:07:29.291Z,999.2
2017-06-06T12:08:38.191Z,999.07
2017-06-06T12:09:47.712Z,999.12
2017-06-06T12:10:56.936Z,999.11
2017-06-06T12:12:05.829Z,999.04
2017-06-06T12:13:15.051Z,999.06
2017-06-06T12:14:23.951Z,999.07
2017-06-06T12:15:33.178Z,999.06
2017-06-06T12:16:42.077Z,999.02
2017-06-06T12:17:51.300Z,998.98
2017-06-06T12:19:00.521Z,999.02
2017-06-06T12:20:09.422Z,998.96
2017-06-06T12:21:18.837Z,998.94
2017-06-06T12:22:28.095Z,998.9
2017-06-06T12:23:37.004Z,998.95
2017-06-06T12:24:46.228Z,999
2017-06-06T12:25:55.136Z,998.92
2017-06-06T12:27:04.038Z,998.94
2017-06-06T12:28:13.326Z,998.93
2017-06-06T12:29:22.239Z,998.93
2017-06-06T12:30:31.151Z,998.98
2017-06-06T12:31:40.385Z,998.93
2017-06-06T12:32:49.537Z,998.92
2017-06-06T12:33:58.453Z,998.9
2017-06-06T12:35:07.356Z,999
2017-06-06T12:36:16.256Z,999.01
2017-06-06T12:37:25.484Z,998.96
2017-06-06T12:38:34.656Z,998.97
2017-06-06T12:39:43.884Z,998.94
2017-06-06T12:40:52.788Z,998.99
2017-06-06T12:42:01.688Z,998.96
2017-06-06T12:43:10.923Z,999.03
2017-06-06T12:44:20.080Z,999.14
2017-06-06T12:45:28.982Z,998.93
2017-06-06T12:46:37.888Z,998.9
2017-06-06T12:47:46.797Z,998.95
2017-06-06T12:48:55.695Z,998.9
2017-06-06T12:50:04.898Z,998.96
2017-06-06T12:51:13.802Z,998.98
2017-06-06T12:52:22.701Z,998.97
2017-06-06T12:53:31.943Z,998.87
2017-06-06T12:54:40.845Z,998.83
2017-06-06T12:55:50.276Z,998.85
2017-06-06T12:56:59.180Z,998.83
2017-06-06T12:58:08.095Z,998.87
2017-06-06T12:59:17.005Z,998.82
2017-06-06T13:00:25.910Z,998.78
2017-06-06T13:01:34.825Z,998.78
2017-06-06T13:02:43.729Z,998.78
2017-06-06T13:03:52.959Z,998.83
2017-06-06T13:05:02.185Z,998.95
2017-06-06T13:06:11.412Z,998.84
2017-06-06T13:07:21.033Z,998.84
2017-06-06T13:08:30.258Z,998.86
2017-06-06T13:09:39.162Z,998.92
2017-06-06T13:10:48.056Z,998.95
2017-06-06T13:11:56.955Z,999.11
2017-06-06T13:13:05.957Z,999.48
2017-06-06T13:14:15.182Z,999.53
2017-06-06T13:15:24.279Z,999.6
2017-06-06T13:16:33.219Z,999.56
2017-06-06T13:17:42.172Z,999.53
2017-06-06T13:18:51.921Z,999.41
2017-06-06T13:20:00.816Z,999.59
2017-06-06T13:21:10.043Z,999.67
2017-06-06T13:22:18.941Z,999.61
2017-06-06T13:23:27.839Z,999.66
2017-06-06T13:24:37.533Z,999.65
2017-06-06T13:25:46.755Z,999.7
2017-06-06T13:26:55.649Z,999.67
2017-06-06T13:28:04.546Z,999.68
2017-06-06T13:29:13.452Z,999.7
2017-06-06T13:30:22.399Z,999.64
2017-06-06T13:31:31.944Z,999.75
2017-06-06T13:32:40.846Z,999.67
2017-06-06T13:33:49.784Z,999.71
2017-06-06T13:34:58.678Z,999.69
2017-06-06T13:36:08.005Z,999.69
2017-06-06T13:37:16.900Z,999.68
2017-06-06T13:38:25.800Z,999.68
2017-06-06T13:39:34.702Z,999.7
2017-06-06T13:40:43.923Z,999.75
2017-06-06T13:41:52.976Z,999.74
2017-06-06T13:43:02.203Z,999.74
2017-06-06T13:44:11.096Z,999.78
2017-06-06T13:45:19.997Z,999.81
2017-06-06T13:46:29.216Z,999.82
2017-06-06T13:47:38.262Z,999.87
2017-06-06T13:48:47.810Z,999.77
2017-06-06T13:49:56.757Z,999.83
2017-06-06T13:51:05.658Z,999.81
2017-06-06T13:52:15.212Z,999.85
2017-06-06T13:53:24.200Z,999.85
2017-06-06T13:54:33.453Z,999.88
2017-06-06T13:55:42.355Z,999.89
2017-06-06T13:56:51.251Z,999.89
2017-06-06T13:58:00.150Z,999.82
2017-06-06T13:59:09.743Z,999.91
2017-06-06T14:00:18.986Z,999.89
2017-06-06T14:01:28.217Z,999.94
2017-06-06T14:02:37.435Z,999.92
2017-06-06T14:03:46.333Z,999.84
2017-06-06T14:04:55.231Z,999.92
2017-06-06T14:06:04.162Z,999.94
2017-06-06T14:07:13.094Z,999.98